sensor_id;sensor_type;location;lat;lon;timestamp;pressure;altitude;pressure_sealevel;temperature;humidity
43814;BME280;29669;55.706;37.656;2022-11-11T00:01:54;100272.84;;;9.92;68.91
43814;BME280;29669;55.706;37.656;2022-11-11T00:05:00;100276.44;;;9.91;68.82
43814;BME280;29669;55.706;37.656;2022-11-11T00:08:06;100273.31;;;9.87;68.85
43814;BME280;29669;55.706;37.656;2022-11-11T00:11:14;100273.47;;;9.86;68.80
43814;BME280;29669;55.706;37.656;2022-11-11T00:14:21;100265.44;;;9.79;69.15
43814;BME280;29669;55.706;37.656;2022-11-11T00:17:27;100272.53;;;9.77;69.20
43814;BME280;29669;55.706;37.656;2022-11-11T00:20:52;100263.28;;;9.75;69.41
43814;BME280;29669;55.706;37.656;2022-11-11T00:24:21;100263.44;;;9.73;69.31
43814;BME280;29669;55.706;37.656;2022-11-11T00:27:46;100258.41;;;9.72;69.50
43814;BME280;29669;55.706;37.656;2022-11-11T00:31:00;100265.88;;;9.75;69.57
43814;BME280;29669;55.706;37.656;2022-11-11T00:34:07;100255.66;;;9.73;69.55
43814;BME280;29669;55.706;37.656;2022-11-11T00:37:13;100261.28;;;9.69;69.61
43814;BME280;29669;55.706;37.656;2022-11-11T00:40:19;100263.88;;;9.69;69.88
43814;BME280;29669;55.706;37.656;2022-11-11T00:43:26;100270.69;;;9.70;69.90
43814;BME280;29669;55.706;37.656;2022-11-11T00:46:32;100270.00;;;9.68;69.80
43814;BME280;29669;55.706;37.656;2022-11-11T00:49:57;100266.22;;;9.62;69.98
43814;BME280;29669;55.706;37.656;2022-11-11T00:53:27;100250.81;;;9.61;69.97
43814;BME280;29669;55.706;37.656;2022-11-11T00:56:34;100248.38;;;9.59;70.28
43814;BME280;29669;55.706;37.656;2022-11-11T00:59:43;100249.16;;;9.60;70.25
43814;BME280;29669;55.706;37.656;2022-11-11T01:02:50;100252.44;;;9.62;70.28
43814;BME280;29669;55.706;37.656;2022-11-11T01:06:01;100245.63;;;9.61;70.38
43814;BME280;29669;55.706;37.656;2022-11-11T01:09:08;100246.31;;;9.63;70.18
43814;BME280;29669;55.706;37.656;2022-11-11T01:12:14;100251.34;;;9.64;70.40
43814;BME280;29669;55.706;37.656;2022-11-11T01:15:20;100249.28;;;9.68;70.22
43814;BME280;29669;55.706;37.656;2022-11-11T01:18:27;100247.94;;;9.64;70.46
43814;BME280;29669;55.706;37.656;2022-11-11T01:21:34;100246.97;;;9.65;70.52
43814;BME280;29669;55.706;37.656;2022-11-11T01:24:41;100252.16;;;9.65;70.59
43814;BME280;29669;55.706;37.656;2022-11-11T01:27:49;100253.50;;;9.69;70.58
43814;BME280;29669;55.706;37.656;2022-11-11T01:31:04;100247.88;;;9.73;70.41
43814;BME280;29669;55.706;37.656;2022-11-11T01:34:11;100246.53;;;9.69;70.72
43814;BME280;29669;55.706;37.656;2022-11-11T01:37:17;100250.25;;;9.67;70.50
43814;BME280;29669;55.706;37.656;2022-11-11T01:40:24;100252.16;;;9.65;70.74
43814;BME280;29669;55.706;37.656;2022-11-11T01:43:30;100252.44;;;9.62;70.82
43814;BME280;29669;55.706;37.656;2022-11-11T01:50:00;100255.03;;;9.62;70.85
43814;BME280;29669;55.706;37.656;2022-11-11T01:53:07;100249.16;;;9.60;70.96
43814;BME280;29669;55.706;37.656;2022-11-11T01:56:14;100253.41;;;9.61;71.05
43814;BME280;29669;55.706;37.656;2022-11-11T01:59:20;100255.47;;;9.57;71.13
43814;BME280;29669;55.706;37.656;2022-11-11T02:02:45;100258.06;;;9.57;71.17
43814;BME280;29669;55.706;37.656;2022-11-11T02:05:53;100252.75;;;9.59;71.34
43814;BME280;29669;55.706;37.656;2022-11-11T02:09:02;100257.25;;;9.57;71.13
43814;BME280;29669;55.706;37.656;2022-11-11T02:12:09;100250.56;;;9.54;71.32
43814;BME280;29669;55.706;37.656;2022-11-11T02:15:54;100240.81;;;9.48;71.31
43814;BME280;29669;55.706;37.656;2022-11-11T02:19:00;100255.53;;;9.47;71.54
43814;BME280;29669;55.706;37.656;2022-11-11T02:22:11;100252.78;;;9.49;71.67
43814;BME280;29669;55.706;37.656;2022-11-11T02:25:21;100256.72;;;9.53;71.46
43814;BME280;29669;55.706;37.656;2022-11-11T02:28:30;100251.41;;;9.55;71.49
43814;BME280;29669;55.706;37.656;2022-11-11T02:31:38;100245.25;;;9.56;71.59
43814;BME280;29669;55.706;37.656;2022-11-11T02:34:44;100245.25;;;9.56;71.48
43814;BME280;29669;55.706;37.656;2022-11-11T02:37:51;100247.03;;;9.55;71.63
43814;BME280;29669;55.706;37.656;2022-11-11T02:40:58;100248.38;;;9.59;71.42
43814;BME280;29669;55.706;37.656;2022-11-11T02:44:24;100245.47;;;9.62;71.53
43814;BME280;29669;55.706;37.656;2022-11-11T02:47:31;100247.94;;;9.64;71.44
43814;BME280;29669;55.706;37.656;2022-11-11T02:50:37;100242.75;;;9.64;71.46
43814;BME280;29669;55.706;37.656;2022-11-11T02:53:44;100246.00;;;9.66;71.52
43814;BME280;29669;55.706;37.656;2022-11-11T02:56:50;100240.16;;;9.64;71.64
43814;BME280;29669;55.706;37.656;2022-11-11T03:00:13;100250.25;;;9.67;71.51
43814;BME280;29669;55.706;37.656;2022-11-11T03:03:19;100249.28;;;9.68;71.48
43814;BME280;29669;55.706;37.656;2022-11-11T03:06:26;100244.53;;;9.63;71.73
43814;BME280;29669;55.706;37.656;2022-11-11T03:09:33;100251.34;;;9.64;71.83
43814;BME280;29669;55.706;37.656;2022-11-11T03:12:39;100246.84;;;9.66;71.87
43814;BME280;29669;55.706;37.656;2022-11-11T03:15:46;100238.22;;;9.66;71.77
43814;BME280;29669;55.706;37.656;2022-11-11T03:18:52;100248.31;;;9.69;71.88
43814;BME280;29669;55.706;37.656;2022-11-11T03:22:00;100252.25;;;9.73;72.01
43814;BME280;29669;55.706;37.656;2022-11-11T03:25:28;100245.44;;;9.72;71.97
43814;BME280;29669;55.706;37.656;2022-11-11T03:28:44;100249.94;;;9.70;72.00
43814;BME280;29669;55.706;37.656;2022-11-11T03:31:50;100249.00;;;9.71;71.88
43814;BME280;29669;55.706;37.656;2022-11-11T03:34:56;100251.97;;;9.76;72.03
43814;BME280;29669;55.706;37.656;2022-11-11T03:38:04;100251.38;;;9.82;72.02
43814;BME280;29669;55.706;37.656;2022-11-11T03:41:29;100255.44;;;9.84;71.87
43814;BME280;29669;55.706;37.656;2022-11-11T03:44:35;100254.25;;;9.79;71.80
43814;BME280;29669;55.706;37.656;2022-11-11T03:47:41;100252.91;;;9.75;71.96
43814;BME280;29669;55.706;37.656;2022-11-11T03:50:48;100258.63;;;9.78;71.96
43814;BME280;29669;55.706;37.656;2022-11-11T03:53:55;100259.72;;;9.76;71.97
43814;BME280;29669;55.706;37.656;2022-11-11T03:57:00;100264.09;;;9.75;72.14
43814;BME280;29669;55.706;37.656;2022-11-11T04:00:27;100259.44;;;9.79;71.79
43814;BME280;29669;55.706;37.656;2022-11-11T04:03:33;100261.50;;;9.75;72.13
43814;BME280;29669;55.706;37.656;2022-11-11T04:07:18;100256.31;;;9.75;72.04
43814;BME280;29669;55.706;37.656;2022-11-11T04:10:42;100260.69;;;9.75;72.02
43814;BME280;29669;55.706;37.656;2022-11-11T04:13:48;100260.56;;;9.76;72.09
43814;BME280;29669;55.706;37.656;2022-11-11T04:17:13;100262.31;;;9.76;72.18
43814;BME280;29669;55.706;37.656;2022-11-11T04:20:20;100273.00;;;9.73;72.25
43814;BME280;29669;55.706;37.656;2022-11-11T04:23:45;100262.75;;;9.71;72.28
43814;BME280;29669;55.706;37.656;2022-11-11T04:26:53;100273.00;;;9.73;72.47
43814;BME280;29669;55.706;37.656;2022-11-11T04:30:00;100271.06;;;9.75;72.32
43814;BME280;29669;55.706;37.656;2022-11-11T04:33:06;100273.38;;;9.78;72.33
43814;BME280;29669;55.706;37.656;2022-11-11T04:36:13;100288.94;;;9.78;72.34
43814;BME280;29669;55.706;37.656;2022-11-11T04:39:19;100287.53;;;9.83;72.21
43814;BME280;29669;55.706;37.656;2022-11-11T04:42:44;100286.44;;;9.86;72.19
43814;BME280;29669;55.706;37.656;2022-11-11T04:45:50;100289.16;;;9.84;72.05
43814;BME280;29669;55.706;37.656;2022-11-11T04:48:57;100286.69;;;9.83;72.19
43814;BME280;29669;55.706;37.656;2022-11-11T04:52:03;100294.34;;;9.84;72.18
43814;BME280;29669;55.706;37.656;2022-11-11T04:55:27;100316.03;;;9.83;72.11
43814;BME280;29669;55.706;37.656;2022-11-11T04:58:53;100307.75;;;9.80;72.16
43814;BME280;29669;55.706;37.656;2022-11-11T05:02:19;100310.19;;;9.81;72.20
43814;BME280;29669;55.706;37.656;2022-11-11T05:05:46;100304.19;;;9.81;72.02
43814;BME280;29669;55.706;37.656;2022-11-11T05:09:11;100296.13;;;9.84;72.10
43814;BME280;29669;55.706;37.656;2022-11-11T05:12:17;100295.53;;;9.90;72.05
43814;BME280;29669;55.706;37.656;2022-11-11T05:15:23;100309.31;;;9.90;72.08
43814;BME280;29669;55.706;37.656;2022-11-11T05:18:48;100298.66;;;9.93;71.81
43814;BME280;29669;55.706;37.656;2022-11-11T05:22:49;100300.44;;;9.93;72.00
43814;BME280;29669;55.706;37.656;2022-11-11T05:25:48;100293.22;;;9.87;71.96
43814;BME280;29669;55.706;37.656;2022-11-11T05:28:54;100296.34;;;9.90;72.16
43814;BME280;29669;55.706;37.656;2022-11-11T05:32:01;100295.91;;;9.95;71.97
43814;BME280;29669;55.706;37.656;2022-11-11T05:35:09;100307.91;;;9.96;72.01
43814;BME280;29669;55.706;37.656;2022-11-11T05:38:15;100309.84;;;9.94;71.95
43814;BME280;29669;55.706;37.656;2022-11-11T05:41:27;100305.63;;;9.93;72.06
43814;BME280;29669;55.706;37.656;2022-11-11T05:44:33;100303.97;;;9.92;72.15
43814;BME280;29669;55.706;37.656;2022-11-11T05:47:39;100302.19;;;9.92;72.13
43814;BME280;29669;55.706;37.656;2022-11-11T05:50:45;100313.41;;;9.93;72.04
43814;BME280;29669;55.706;37.656;2022-11-11T05:53:52;100309.84;;;9.94;72.09
43814;BME280;29669;55.706;37.656;2022-11-11T05:56:58;100322.94;;;9.92;72.07
43814;BME280;29669;55.706;37.656;2022-11-11T06:00:05;100318.84;;;9.90;72.21
43814;BME280;29669;55.706;37.656;2022-11-11T06:03:12;100316.66;;;9.95;71.92
43814;BME280;29669;55.706;37.656;2022-11-11T06:06:18;100327.31;;;9.92;71.87
43814;BME280;29669;55.706;37.656;2022-11-11T06:09:24;100326.53;;;9.91;72.03
43814;BME280;29669;55.706;37.656;2022-11-11T06:12:30;100326.06;;;9.96;71.96
43814;BME280;29669;55.706;37.656;2022-11-11T06:15:57;100332.22;;;9.95;72.34
43814;BME280;29669;55.706;37.656;2022-11-11T06:19:04;100337.41;;;9.95;72.06
43814;BME280;29669;55.706;37.656;2022-11-11T06:22:10;100338.75;;;9.99;71.95
43814;BME280;29669;55.706;37.656;2022-11-11T06:25:16;100352.66;;;9.98;71.89
43814;BME280;29669;55.706;37.656;2022-11-11T06:28:50;100345.88;;;9.97;72.00
43814;BME280;29669;55.706;37.656;2022-11-11T06:31:57;100343.66;;;10.02;71.88
43814;BME280;29669;55.706;37.656;2022-11-11T06:35:03;100351.56;;;10.00;72.05
43814;BME280;29669;55.706;37.656;2022-11-11T06:38:09;100353.06;;;10.03;72.03
43814;BME280;29669;55.706;37.656;2022-11-11T06:41:15;100347.72;;;10.04;72.03
43814;BME280;29669;55.706;37.656;2022-11-11T06:44:22;100342.69;;;10.12;71.87
43814;BME280;29669;55.706;37.656;2022-11-11T06:47:28;100345.13;;;10.14;71.64
43814;BME280;29669;55.706;37.656;2022-11-11T06:50:34;100338.94;;;10.15;71.62
43814;BME280;29669;55.706;37.656;2022-11-11T06:53:41;100342.22;;;10.17;71.56
43814;BME280;29669;55.706;37.656;2022-11-11T06:56:47;100350.97;;;10.16;71.58
43814;BME280;29669;55.706;37.656;2022-11-11T06:59:54;100352.31;;;10.20;71.62
43814;BME280;29669;55.706;37.656;2022-11-11T07:03:00;100350.38;;;10.22;71.63
43814;BME280;29669;55.706;37.656;2022-11-11T07:06:06;100347.06;;;10.29;71.46
43814;BME280;29669;55.706;37.656;2022-11-11T07:09:12;100358.75;;;10.33;71.43
43814;BME280;29669;55.706;37.656;2022-11-11T07:12:18;100357.91;;;10.43;71.22
43814;BME280;29669;55.706;37.656;2022-11-11T07:15:25;100357.34;;;10.39;71.17
43814;BME280;29669;55.706;37.656;2022-11-11T07:18:31;100359.00;;;10.40;71.30
43814;BME280;29669;55.706;37.656;2022-11-11T07:21:37;100363.38;;;10.39;71.09
43814;BME280;29669;55.706;37.656;2022-11-11T07:24:44;100353.88;;;10.30;71.11
43814;BME280;29669;55.706;37.656;2022-11-11T07:27:50;100354.31;;;10.26;71.02
43814;BME280;29669;55.706;37.656;2022-11-11T07:31:03;100356.78;;;10.27;71.25
43814;BME280;29669;55.706;37.656;2022-11-11T07:34:10;100370.41;;;10.29;71.34
43814;BME280;29669;55.706;37.656;2022-11-11T07:37:16;100371.53;;;10.27;71.18
43814;BME280;29669;55.706;37.656;2022-11-11T07:40:22;100377.66;;;10.26;71.29
43814;BME280;29669;55.706;37.656;2022-11-11T07:43:29;100376.72;;;10.27;71.42
43814;BME280;29669;55.706;37.656;2022-11-11T07:46:35;100377.53;;;10.27;71.20
43814;BME280;29669;55.706;37.656;2022-11-11T07:49:41;100370.53;;;10.28;71.25
43814;BME280;29669;55.706;37.656;2022-11-11T07:52:48;100375.53;;;10.21;71.29
43814;BME280;29669;55.706;37.656;2022-11-11T07:55:54;100387.38;;;10.24;71.31
43814;BME280;29669;55.706;37.656;2022-11-11T07:59:00;100396.78;;;10.25;71.44
43814;BME280;29669;55.706;37.656;2022-11-11T08:02:09;100390.63;;;10.26;71.41
43814;BME280;29669;55.706;37.656;2022-11-11T08:05:15;100386.63;;;10.31;71.45
43814;BME280;29669;55.706;37.656;2022-11-11T08:08:22;100395.50;;;10.38;71.22
43814;BME280;29669;55.706;37.656;2022-11-11T08:11:32;100392.31;;;10.45;71.14
43814;BME280;29669;55.706;37.656;2022-11-11T08:14:57;100393.09;;;10.45;70.95
43814;BME280;29669;55.706;37.656;2022-11-11T08:18:11;100396.53;;;10.46;70.83
43814;BME280;29669;55.706;37.656;2022-11-11T08:21:17;100380.44;;;10.42;71.00
43814;BME280;29669;55.706;37.656;2022-11-11T08:24:23;100384.06;;;10.49;70.97
43814;BME280;29669;55.706;37.656;2022-11-11T08:28:00;100379.63;;;10.59;70.76
43814;BME280;29669;55.706;37.656;2022-11-11T08:31:07;100374.44;;;10.59;70.72
43814;BME280;29669;55.706;37.656;2022-11-11T08:34:14;100373.53;;;10.68;70.77
43814;BME280;29669;55.706;37.656;2022-11-11T08:37:21;100368.19;;;10.87;70.50
43814;BME280;29669;55.706;37.656;2022-11-11T08:40:27;100374.22;;;10.88;70.20
43814;BME280;29669;55.706;37.656;2022-11-11T08:43:33;100365.28;;;10.90;70.16
43814;BME280;29669;55.706;37.656;2022-11-11T08:46:42;100365.44;;;10.89;70.24
43814;BME280;29669;55.706;37.656;2022-11-11T08:49:49;100363.00;;;10.87;70.25
43814;BME280;29669;55.706;37.656;2022-11-11T08:52:56;100357.56;;;10.98;70.09
43814;BME280;29669;55.706;37.656;2022-11-11T08:56:02;100364.34;;;10.91;70.11
43814;BME280;29669;55.706;37.656;2022-11-11T08:59:09;100369.97;;;10.87;70.28
43814;BME280;29669;55.706;37.656;2022-11-11T09:02:15;100366.19;;;10.81;70.20
43814;BME280;29669;55.706;37.656;2022-11-11T09:05:21;100378.34;;;10.81;70.42
43814;BME280;29669;55.706;37.656;2022-11-11T09:08:28;100379.09;;;10.73;70.31
43814;BME280;29669;55.706;37.656;2022-11-11T09:11:34;100369.03;;;10.70;70.62
43814;BME280;29669;55.706;37.656;2022-11-11T09:14:41;100378.22;;;10.65;70.67
43814;BME280;29669;55.706;37.656;2022-11-11T09:17:47;100379.56;;;10.69;70.50
43814;BME280;29669;55.706;37.656;2022-11-11T09:20:57;100371.63;;;10.70;70.47
43814;BME280;29669;55.706;37.656;2022-11-11T09:24:04;100373.09;;;10.73;70.36
43814;BME280;29669;55.706;37.656;2022-11-11T09:27:10;100376.91;;;10.78;70.42
43814;BME280;29669;55.706;37.656;2022-11-11T09:30:16;100380.81;;;10.82;70.21
43814;BME280;29669;55.706;37.656;2022-11-11T09:33:22;100391.72;;;10.86;70.32
43814;BME280;29669;55.706;37.656;2022-11-11T09:36:29;100402.91;;;10.86;69.91
43814;BME280;29669;55.706;37.656;2022-11-11T09:39:36;100389.88;;;10.78;70.07
43814;BME280;29669;55.706;37.656;2022-11-11T09:43:04;100391.50;;;10.79;70.21
43814;BME280;29669;55.706;37.656;2022-11-11T09:46:23;100383.19;;;10.93;70.30
43814;BME280;29669;55.706;37.656;2022-11-11T09:49:54;100386.28;;;11.14;69.88
43814;BME280;29669;55.706;37.656;2022-11-11T09:53:17;100392.94;;;11.17;69.62
43814;BME280;29669;55.706;37.656;2022-11-11T09:56:26;100386.28;;;11.14;69.66
43814;BME280;29669;55.706;37.656;2022-11-11T09:59:47;100393.41;;;11.12;69.62
43814;BME280;29669;55.706;37.656;2022-11-11T10:02:56;100391.75;;;11.11;69.69
43814;BME280;29669;55.706;37.656;2022-11-11T10:06:16;100388.50;;;11.09;69.55
43814;BME280;29669;55.706;37.656;2022-11-11T10:10:10;100388.06;;;11.14;69.48
43814;BME280;29669;55.706;37.656;2022-11-11T10:13:29;100387.06;;;11.15;69.24
43814;BME280;29669;55.706;37.656;2022-11-11T10:23:31;100396.59;;;11.06;69.27
43814;BME280;29669;55.706;37.656;2022-11-11T10:26:41;100393.78;;;11.00;69.30
43814;BME280;29669;55.706;37.656;2022-11-11T10:29:49;100407.22;;;10.95;69.40
43814;BME280;29669;55.706;37.656;2022-11-11T10:36:15;100418.13;;;10.99;69.90
43814;BME280;29669;55.706;37.656;2022-11-11T10:42:50;100425.41;;;10.95;69.56
43814;BME280;29669;55.706;37.656;2022-11-11T10:46:12;100428.16;;;10.94;69.56
43814;BME280;29669;55.706;37.656;2022-11-11T10:49:24;100430.22;;;10.90;69.79
43814;BME280;29669;55.706;37.656;2022-11-11T10:52:36;100442.09;;;10.93;69.57
43814;BME280;29669;55.706;37.656;2022-11-11T10:55:48;100432.53;;;10.93;69.51
43814;BME280;29669;55.706;37.656;2022-11-11T10:59:20;100422.31;;;10.92;69.62
43814;BME280;29669;55.706;37.656;2022-11-11T11:02:36;100422.16;;;10.93;69.73
43814;BME280;29669;55.706;37.656;2022-11-11T11:05:51;100427.34;;;10.93;69.67
43814;BME280;29669;55.706;37.656;2022-11-11T11:09:09;100428.81;;;10.96;69.65
43814;BME280;29669;55.706;37.656;2022-11-11T11:12:25;100439.66;;;10.91;69.62
43814;BME280;29669;55.706;37.656;2022-11-11T11:15:38;100434.31;;;10.93;70.06
43814;BME280;29669;55.706;37.656;2022-11-11T11:19:14;100433.88;;;10.97;69.61
43814;BME280;29669;55.706;37.656;2022-11-11T11:22:44;100445.53;;;10.93;69.72
43814;BME280;29669;55.706;37.656;2022-11-11T11:25:52;100453.59;;;10.90;69.78
43814;BME280;29669;55.706;37.656;2022-11-11T11:29:00;100452.34;;;10.94;69.62
43814;BME280;29669;55.706;37.656;2022-11-11T11:32:26;100461.94;;;10.94;69.42
43814;BME280;29669;55.706;37.656;2022-11-11T11:35:42;100478.53;;;10.83;69.64
43814;BME280;29669;55.706;37.656;2022-11-11T11:38:49;100467.25;;;10.75;69.82
43814;BME280;29669;55.706;37.656;2022-11-11T11:41:55;100460.72;;;10.71;69.81
43814;BME280;29669;55.706;37.656;2022-11-11T11:48:35;100455.28;;;10.64;70.09
43814;BME280;29669;55.706;37.656;2022-11-11T11:52:11;100463.38;;;10.61;70.04
43814;BME280;29669;55.706;37.656;2022-11-11T11:55:41;100455.84;;;10.58;70.11
43814;BME280;29669;55.706;37.656;2022-11-11T12:12:38;100459.91;;;10.43;70.76
43814;BME280;29669;55.706;37.656;2022-11-11T12:19:09;100442.34;;;10.37;70.82
43814;BME280;29669;55.706;37.656;2022-11-11T12:22:39;100452.06;;;10.35;71.06
43814;BME280;29669;55.706;37.656;2022-11-11T12:33:16;100435.00;;;10.32;71.30
43814;BME280;29669;55.706;37.656;2022-11-11T12:53:23;100439.09;;;10.53;71.28
43814;BME280;29669;55.706;37.656;2022-11-11T12:56:47;100434.41;;;10.56;71.29
43814;BME280;29669;55.706;37.656;2022-11-11T13:00:09;100432.91;;;10.63;70.98
43814;BME280;29669;55.706;37.656;2022-11-11T13:10:05;100424.66;;;10.50;71.33
43814;BME280;29669;55.706;37.656;2022-11-11T13:16:22;100433.75;;;10.54;71.42
43814;BME280;29669;55.706;37.656;2022-11-11T13:19:42;100429.22;;;10.56;71.29
43814;BME280;29669;55.706;37.656;2022-11-11T13:22:50;100438.41;;;10.51;71.29
43814;BME280;29669;55.706;37.656;2022-11-11T13:25:59;100431.09;;;10.46;71.49
43814;BME280;29669;55.706;37.656;2022-11-11T13:32:44;100428.09;;;10.41;71.59
43814;BME280;29669;55.706;37.656;2022-11-11T13:35:55;100435.19;;;10.39;71.62
43814;BME280;29669;55.706;37.656;2022-11-11T13:39:03;100434.94;;;10.42;71.55
43814;BME280;29669;55.706;37.656;2022-11-11T13:42:09;100428.56;;;10.36;71.65
43814;BME280;29669;55.706;37.656;2022-11-11T13:45:25;100435.09;;;10.40;71.41
43814;BME280;29669;55.706;37.656;2022-11-11T13:48:36;100448.84;;;10.41;71.30
43814;BME280;29669;55.706;37.656;2022-11-11T13:51:43;100447.75;;;10.43;71.36
43814;BME280;29669;55.706;37.656;2022-11-11T13:54:58;100437.53;;;10.42;71.35
43814;BME280;29669;55.706;37.656;2022-11-11T13:58:07;100440.41;;;10.39;71.36
43814;BME280;29669;55.706;37.656;2022-11-11T14:01:33;100439.44;;;10.40;71.45
43814;BME280;29669;55.706;37.656;2022-11-11T14:08:08;100437.69;;;10.40;71.34
43814;BME280;29669;55.706;37.656;2022-11-11T14:11:33;100438.47;;;10.41;71.27
43814;BME280;29669;55.706;37.656;2022-11-11T14:14:44;100441.75;;;10.43;71.47
43814;BME280;29669;55.706;37.656;2022-11-11T14:17:55;100433.00;;;10.44;71.19
43814;BME280;29669;55.706;37.656;2022-11-11T14:21:01;100433.84;;;10.45;71.04
43814;BME280;29669;55.706;37.656;2022-11-11T14:24:08;100437.53;;;10.42;71.05
43814;BME280;29669;55.706;37.656;2022-11-11T14:27:16;100432.72;;;10.47;71.00
43814;BME280;29669;55.706;37.656;2022-11-11T14:30:35;100437.31;;;10.53;70.89
43814;BME280;29669;55.706;37.656;2022-11-11T14:37:20;100430.63;;;10.51;70.77
43814;BME280;29669;55.706;37.656;2022-11-11T14:40:30;100424.91;;;10.47;70.63
43814;BME280;29669;55.706;37.656;2022-11-11T14:43:38;100421.50;;;10.47;70.56
43814;BME280;29669;55.706;37.656;2022-11-11T14:53:38;100425.06;;;10.46;70.35
43814;BME280;29669;55.706;37.656;2022-11-11T14:56:54;100413.97;;;10.53;70.17
43814;BME280;29669;55.706;37.656;2022-11-11T15:03:53;100424.03;;;10.56;69.99
43814;BME280;29669;55.706;37.656;2022-11-11T15:07:00;100412.41;;;10.60;69.79
43814;BME280;29669;55.706;37.656;2022-11-11T15:10:17;100405.13;;;10.64;69.51
43814;BME280;29669;55.706;37.656;2022-11-11T15:16:57;100394.31;;;10.68;69.29
43814;BME280;29669;55.706;37.656;2022-11-11T15:27:04;100397.88;;;10.67;69.11
43814;BME280;29669;55.706;37.656;2022-11-11T15:30:19;100398.84;;;10.66;68.93
43814;BME280;29669;55.706;37.656;2022-11-11T15:33:40;100394.31;;;10.68;68.85
43814;BME280;29669;55.706;37.656;2022-11-11T15:36:58;100390.91;;;10.68;68.76
43814;BME280;29669;55.706;37.656;2022-11-11T15:40:05;100379.84;;;10.66;68.73
43814;BME280;29669;55.706;37.656;2022-11-11T15:43:20;100375.78;;;10.63;68.45
43814;BME280;29669;55.706;37.656;2022-11-11T15:46:30;100361.31;;;10.61;68.57
43814;BME280;29669;55.706;37.656;2022-11-11T15:49:42;100367.59;;;10.58;68.47
43814;BME280;29669;55.706;37.656;2022-11-11T15:52:58;100367.59;;;10.58;68.42
43814;BME280;29669;55.706;37.656;2022-11-11T15:56:26;100362.41;;;10.58;68.30
43814;BME280;29669;55.706;37.656;2022-11-11T15:59:33;100372.78;;;10.58;68.33
43814;BME280;29669;55.706;37.656;2022-11-11T16:02:42;100374.13;;;10.62;68.17
43814;BME280;29669;55.706;37.656;2022-11-11T16:05:49;100383.56;;;10.63;67.99
43814;BME280;29669;55.706;37.656;2022-11-11T16:08:55;100391.34;;;10.63;67.98
43814;BME280;29669;55.706;37.656;2022-11-11T16:12:02;100388.75;;;10.63;67.98
43814;BME280;29669;55.706;37.656;2022-11-11T16:15:09;100391.50;;;10.62;67.94
43814;BME280;29669;55.706;37.656;2022-11-11T16:18:38;100388.25;;;10.60;67.83
43814;BME280;29669;55.706;37.656;2022-11-11T16:21:51;100392.31;;;10.62;67.83
43814;BME280;29669;55.706;37.656;2022-11-11T16:25:00;100392.31;;;10.62;67.79
43814;BME280;29669;55.706;37.656;2022-11-11T16:28:10;100398.63;;;10.60;67.89
43814;BME280;29669;55.706;37.656;2022-11-11T16:37:49;100392.69;;;10.67;67.46
43814;BME280;29669;55.706;37.656;2022-11-11T16:40:56;100394.16;;;10.70;67.51
43814;BME280;29669;55.706;37.656;2022-11-11T16:44:02;100382.16;;;10.69;67.44
43814;BME280;29669;55.706;37.656;2022-11-11T16:50:54;100361.00;;;10.46;67.37
43814;BME280;29669;55.706;37.656;2022-11-11T16:54:14;100356.16;;;10.33;67.54
43814;BME280;29669;55.706;37.656;2022-11-11T16:57:26;100338.88;;;10.24;67.58
43814;BME280;29669;55.706;37.656;2022-11-11T17:00:37;100326.66;;;10.17;67.80
43814;BME280;29669;55.706;37.656;2022-11-11T17:03:58;100319.59;;;10.09;67.63
43814;BME280;29669;55.706;37.656;2022-11-11T17:07:04;100325.34;;;10.03;67.96
43814;BME280;29669;55.706;37.656;2022-11-11T17:10:20;100299.19;;;9.97;67.82
43814;BME280;29669;55.706;37.656;2022-11-11T17:13:29;100312.81;;;9.99;67.91
43814;BME280;29669;55.706;37.656;2022-11-11T17:16:35;100312.16;;;9.97;67.92
43814;BME280;29669;55.706;37.656;2022-11-11T17:19:42;100308.59;;;9.98;68.11
43814;BME280;29669;55.706;37.656;2022-11-11T17:22:55;100293.69;;;10.00;68.20
43814;BME280;29669;55.706;37.656;2022-11-11T17:26:05;100306.91;;;10.06;67.97
43814;BME280;29669;55.706;37.656;2022-11-11T17:29:13;100309.34;;;10.08;68.02
43814;BME280;29669;55.706;37.656;2022-11-11T17:32:19;100309.75;;;10.13;68.18
43814;BME280;29669;55.706;37.656;2022-11-11T17:35:26;100312.75;;;10.18;67.99
43814;BME280;29669;55.706;37.656;2022-11-11T17:38:36;100296.88;;;10.21;68.01
43814;BME280;29669;55.706;37.656;2022-11-11T17:41:42;100293.84;;;10.25;68.07
43814;BME280;29669;55.706;37.656;2022-11-11T17:44:49;100295.63;;;10.25;68.03
43814;BME280;29669;55.706;37.656;2022-11-11T17:47:55;100293.53;;;10.28;68.06
43814;BME280;29669;55.706;37.656;2022-11-11T17:51:03;100290.00;;;10.29;67.95
43814;BME280;29669;55.706;37.656;2022-11-11T17:54:10;100294.03;;;10.32;68.04
43814;BME280;29669;55.706;37.656;2022-11-11T17:57:17;100281.06;;;10.32;68.13
43814;BME280;29669;55.706;37.656;2022-11-11T18:00:24;100294.19;;;10.30;68.11
43814;BME280;29669;55.706;37.656;2022-11-11T18:03:30;100287.53;;;10.28;68.30
43814;BME280;29669;55.706;37.656;2022-11-11T18:06:37;100291.59;;;10.30;68.21
43814;BME280;29669;55.706;37.656;2022-11-11T18:09:43;100277.97;;;10.28;68.33
43814;BME280;29669;55.706;37.656;2022-11-11T18:12:51;100276.03;;;10.30;68.45
43814;BME280;29669;55.706;37.656;2022-11-11T18:15:57;100277.66;;;10.31;68.37
43814;BME280;29669;55.706;37.656;2022-11-11T18:19:11;100282.06;;;10.31;68.23
43814;BME280;29669;55.706;37.656;2022-11-11T18:22:18;100278.47;;;10.32;68.72
43814;BME280;29669;55.706;37.656;2022-11-11T18:25:24;100264.25;;;10.36;68.41